createdAt,value
2023-05-02T00:03:21.926Z,60.58
2023-05-02T00:07:25.102Z,60.40
2023-05-02T00:11:29.496Z,60.86
2023-05-02T00:15:32.589Z,60.84
2023-05-02T00:19:39.531Z,61.16
2023-05-02T00:23:42.596Z,61.37
2023-05-02T00:27:47.404Z,61.67
2023-05-02T00:31:50.459Z,61.79
2023-05-02T00:35:53.501Z,61.86
2023-05-02T00:39:57.351Z,62.07
2023-05-02T00:44:02.110Z,62.48
2023-05-02T00:48:05.814Z,62.28
2023-05-02T00:52:09.767Z,62.34
2023-05-02T00:56:13.122Z,62.96
2023-05-02T01:00:17.661Z,63.25
2023-05-02T01:04:33.578Z,63.33
2023-05-02T01:08:46.025Z,63.38
2023-05-02T01:12:55.992Z,63.51
2023-05-02T01:17:06.415Z,63.93
2023-05-02T01:21:11.172Z,64.08
2023-05-02T01:25:23.750Z,64.34
2023-05-02T01:29:30.689Z,64.37
2023-05-02T01:33:36.303Z,65.08
2023-05-02T01:37:40.627Z,64.98
2023-05-02T01:41:45.048Z,64.92
2023-05-02T01:45:53.178Z,65.04
2023-05-02T01:49:58.695Z,64.94
2023-05-02T01:54:05.704Z,65.17
2023-05-02T01:58:09.063Z,65.65
2023-05-02T02:02:15.781Z,65.99
2023-05-02T02:06:22.526Z,66.28
2023-05-02T02:10:29.142Z,66.43
2023-05-02T02:14:37.758Z,66.62
2023-05-02T02:18:46.635Z,66.71
2023-05-02T02:22:50.970Z,66.61
2023-05-02T02:26:54.043Z,66.75
2023-05-02T02:30:57.438Z,67.09
2023-05-02T02:35:03.076Z,67.36
2023-05-02T02:39:24.615Z,67.75
2023-05-02T02:43:34.973Z,67.77
2023-05-02T02:47:45.199Z,67.72
2023-05-02T02:51:57.834Z,67.93
2023-05-02T02:56:08.264Z,67.86
2023-05-02T03:00:17.787Z,68.10
2023-05-02T03:04:24.293Z,68.34
2023-05-02T03:08:28.798Z,68.19
2023-05-02T03:12:32.067Z,68.44
2023-05-02T03:16:39.747Z,68.58
2023-05-02T03:20:47.022Z,68.51
2023-05-02T03:24:52.256Z,68.42
2023-05-02T03:28:55.638Z,68.33
2023-05-02T03:33:07.911Z,68.62
2023-05-02T03:37:13.014Z,68.73
2023-05-02T03:41:17.694Z,68.46
2023-05-02T03:45:21.262Z,68.29
2023-05-02T03:49:27.006Z,68.34
2023-05-02T03:53:31.621Z,68.35
2023-05-02T03:57:37.064Z,68.56
2023-05-02T04:01:41.367Z,68.87
2023-05-02T04:05:46.350Z,69.15
2023-05-02T04:09:51.754Z,69.19
2023-05-02T04:13:56.267Z,69.42
2023-05-02T04:18:00.339Z,69.06
2023-05-02T04:22:06.279Z,69.45
2023-05-02T04:26:13.835Z,69.22
2023-05-02T04:30:34.293Z,69.65
2023-05-02T04:34:43.544Z,69.75
2023-05-02T04:38:47.528Z,69.85
2023-05-02T04:42:52.834Z,69.84
2023-05-02T04:47:00.280Z,69.80
2023-05-02T04:51:03.636Z,70.19
2023-05-02T04:55:08.521Z,70.12
2023-05-02T04:59:12.761Z,70.60
2023-05-02T05:03:17.458Z,70.77
2023-05-02T05:07:20.778Z,70.91
2023-05-02T05:11:26.830Z,71.09
2023-05-02T05:15:30.356Z,70.88
2023-05-02T05:19:37.641Z,70.66
2023-05-02T05:23:45.884Z,70.51
2023-05-02T05:27:52.556Z,70.59
2023-05-02T05:31:56.613Z,70.62
2023-05-02T05:36:06.877Z,70.62
2023-05-02T05:40:10.808Z,70.30
2023-05-02T05:44:15.813Z,70.23
2023-05-02T05:48:20.508Z,69.81
2023-05-02T05:52:25.168Z,69.64
2023-05-02T05:56:30.700Z,69.78
2023-05-02T06:00:42.393Z,69.34
2023-05-02T06:04:46.138Z,68.88
2023-05-02T06:08:52.912Z,68.69
2023-05-02T06:12:56.527Z,68.13
2023-05-02T06:17:04.464Z,68.31
2023-05-02T06:21:07.879Z,68.61
2023-05-02T06:25:13.402Z,68.45
2023-05-02T06:29:16.445Z,68.31
2023-05-02T06:33:19.606Z,68.32
2023-05-02T06:37:22.763Z,67.75
2023-05-02T06:41:27.230Z,67.42
2023-05-02T06:45:30.277Z,67.50
2023-05-02T06:49:33.295Z,66.83
2023-05-02T06:53:36.562Z,66.89
2023-05-02T06:57:41.633Z,66.72
2023-05-02T07:01:45.380Z,66.39
2023-05-02T07:05:48.391Z,65.91
2023-05-02T07:09:51.468Z,65.70
2023-05-02T07:13:55.921Z,65.91
2023-05-02T07:17:59.001Z,65.47
2023-05-02T07:22:02.111Z,64.87
2023-05-02T07:26:06.408Z,64.32
2023-05-02T07:30:11.983Z,63.66
2023-05-02T07:34:14.997Z,63.99
2023-05-02T07:38:18.113Z,63.51
2023-05-02T07:42:21.101Z,63.18
2023-05-02T07:46:25.728Z,62.97
2023-05-02T07:50:28.877Z,63.07
2023-05-02T07:54:31.937Z,62.95
2023-05-02T07:58:36.168Z,62.27
2023-05-02T08:02:40.686Z,62.11
2023-05-02T08:06:45.755Z,62.07
2023-05-02T08:10:51.266Z,61.40
2023-05-02T08:14:54.348Z,61.50
2023-05-02T08:18:58.713Z,61.61
2023-05-02T08:23:01.730Z,61.65
2023-05-02T08:27:04.935Z,61.93
2023-05-02T08:31:08.113Z,61.75
2023-05-02T08:35:12.650Z,61.29
2023-05-02T08:39:17.075Z,61.56
2023-05-02T08:43:20.842Z,61.39
2023-05-02T08:47:26.887Z,61.34
2023-05-02T08:51:32.627Z,61.21
2023-05-02T08:55:40.023Z,61.19
2023-05-02T08:59:43.974Z,61.04
2023-05-02T09:03:48.753Z,61.32
2023-05-02T09:07:53.523Z,60.85
2023-05-02T09:11:56.689Z,60.99
2023-05-02T09:16:01.435Z,61.38
2023-05-02T09:20:04.967Z,61.38
2023-05-02T09:24:18.335Z,61.22
2023-05-02T09:28:21.534Z,61.16
2023-05-02T09:32:47.330Z,61.39
2023-05-02T09:36:54.088Z,61.03
2023-05-02T09:40:59.003Z,61.24
2023-05-02T09:45:02.340Z,61.39
2023-05-02T09:49:05.490Z,61.42
2023-05-02T09:53:11.287Z,61.31
2023-05-02T09:57:15.822Z,61.50
2023-05-02T10:01:20.478Z,61.91
2023-05-02T10:05:23.814Z,61.81
2023-05-02T10:09:27.592Z,61.60
2023-05-02T10:13:34.929Z,61.24
2023-05-02T10:17:46.171Z,61.42
2023-05-02T10:21:49.603Z,61.19
2023-05-02T10:25:53.290Z,61.01
2023-05-02T10:29:59.888Z,61.11
2023-05-02T10:34:04.937Z,60.68
2023-05-02T10:38:08.509Z,60.82
2023-05-02T10:42:11.718Z,60.75
2023-05-02T10:46:36.032Z,60.95
2023-05-02T10:50:47.351Z,60.19
2023-05-02T10:54:50.412Z,60.44
2023-05-02T10:58:54.403Z,60.83
2023-05-02T11:02:59.222Z,60.85
2023-05-02T11:07:19.314Z,60.69
2023-05-02T11:11:43.643Z,60.68
2023-05-02T11:16:00.335Z,61.14
2023-05-02T11:20:32.399Z,60.86
2023-05-02T11:24:39.312Z,61.12
2023-05-02T11:28:48.383Z,60.94
2023-05-02T11:33:16.253Z,60.94
2023-05-02T11:37:22.343Z,60.84
2023-05-02T11:41:39.292Z,60.99
2023-05-02T11:45:43.825Z,61.46
2023-05-02T11:49:46.983Z,61.30
2023-05-02T11:53:51.541Z,61.66
2023-05-02T11:57:54.631Z,60.99
2023-05-02T12:01:58.176Z,61.23
2023-05-02T12:06:12.529Z,60.82
2023-05-02T12:10:17.451Z,60.51
2023-05-02T12:14:28.329Z,60.47
2023-05-02T12:18:31.636Z,60.99
2023-05-02T12:22:35.101Z,60.98
2023-05-02T12:26:39.541Z,60.29
2023-05-02T12:30:42.660Z,60.10
2023-05-02T12:34:47.668Z,60.02
2023-05-02T12:38:53.300Z,60.03
2023-05-02T12:43:04.246Z,59.82
2023-05-02T12:47:08.262Z,59.64
2023-05-02T12:51:22.577Z,59.97
2023-05-02T12:55:27.368Z,59.70
2023-05-02T12:59:32.896Z,59.79
2023-05-02T13:03:36.001Z,59.65
2023-05-02T13:07:39.235Z,59.67
2023-05-02T13:11:42.590Z,59.31
2023-05-02T13:15:47.120Z,58.90
2023-05-02T13:20:00.744Z,58.88
2023-05-02T13:24:05.870Z,59.61
2023-05-02T13:28:08.917Z,59.24
2023-05-02T13:32:13.461Z,58.95
2023-05-02T13:36:16.486Z,58.86
2023-05-02T13:40:19.580Z,58.96
2023-05-02T13:44:23.506Z,58.37
2023-05-02T13:48:27.932Z,59.00
2023-05-02T13:52:31.065Z,58.75
2023-05-02T13:56:34.153Z,58.87
2023-05-02T14:00:37.341Z,58.94
2023-05-02T14:04:41.836Z,59.07
2023-05-02T14:08:45.176Z,59.02
2023-05-02T14:12:48.259Z,59.32
2023-05-02T14:16:51.556Z,59.53
2023-05-02T14:20:57.915Z,59.37
2023-05-02T14:25:01.075Z,59.70
2023-05-02T14:29:04.594Z,59.97
2023-05-02T14:33:07.681Z,59.67
2023-05-02T14:37:12.200Z,59.61
2023-05-02T14:41:15.245Z,60.03
2023-05-02T14:45:18.470Z,60.31
2023-05-02T14:49:21.491Z,60.19
2023-05-02T14:53:26.382Z,60.42
2023-05-02T14:57:29.907Z,60.58
2023-05-02T15:01:33.097Z,60.65
2023-05-02T15:05:37.519Z,60.94
2023-05-02T15:09:42.238Z,61.21
2023-05-02T15:13:45.285Z,61.14
2023-05-02T15:17:48.424Z,61.14
2023-05-02T15:21:53.181Z,61.45
2023-05-02T15:25:57.650Z,61.36
2023-05-02T15:30:01.215Z,61.13
2023-05-02T15:34:04.820Z,61.36
2023-05-02T15:38:09.122Z,61.40
2023-05-02T15:42:13.997Z,61.22
2023-05-02T15:46:17.174Z,61.51
2023-05-02T15:50:20.635Z,61.80
2023-05-02T15:54:23.661Z,61.71
2023-05-02T15:58:28.204Z,61.87
2023-05-02T16:02:31.564Z,62.09
2023-05-02T16:06:34.722Z,61.98
2023-05-02T16:10:40.342Z,62.09
2023-05-02T16:14:44.903Z,62.82
2023-05-02T16:18:47.981Z,62.71
2023-05-02T16:22:51.405Z,62.87
2023-05-02T16:26:54.428Z,63.10
2023-05-02T16:30:58.848Z,63.29
2023-05-02T16:35:02.100Z,63.31
2023-05-02T16:39:05.304Z,63.51
2023-05-02T16:43:08.887Z,63.93
2023-05-02T16:47:13.324Z,64.17
2023-05-02T16:51:16.695Z,64.17
2023-05-02T16:55:20.003Z,64.35
2023-05-02T16:59:23.062Z,64.79
2023-05-02T17:03:27.837Z,64.66
2023-05-02T17:07:30.861Z,64.77
2023-05-02T17:11:34.210Z,64.87
2023-05-02T17:15:38.573Z,65.22
2023-05-02T17:19:43.034Z,65.77
2023-05-02T17:23:46.362Z,65.92
2023-05-02T17:27:49.469Z,66.16
2023-05-02T17:31:52.548Z,66.95
2023-05-02T17:35:57.011Z,67.03
2023-05-02T17:40:01.353Z,67.36
2023-05-02T17:44:05.735Z,68.08
2023-05-02T17:48:08.874Z,68.85
2023-05-02T17:52:13.415Z,69.32
2023-05-02T17:56:18.850Z,69.73
2023-05-02T18:00:22.356Z,70.42
2023-05-02T18:04:25.591Z,70.90
2023-05-02T18:08:31.268Z,71.23
2023-05-02T18:12:34.541Z,71.20
2023-05-02T18:16:37.625Z,71.55
2023-05-02T18:20:41.970Z,71.98
2023-05-02T18:24:46.448Z,72.03
2023-05-02T18:28:53.324Z,72.62
2023-05-02T18:32:56.840Z,72.83
2023-05-02T18:37:01.854Z,72.59
2023-05-02T18:41:06.236Z,73.17
2023-05-02T18:45:09.684Z,73.04
2023-05-02T18:49:12.887Z,73.14
2023-05-02T18:53:16.391Z,73.33
2023-05-02T18:57:21.643Z,73.33
2023-05-02T19:01:25.616Z,73.57
2023-05-02T19:05:28.917Z,73.55
2023-05-02T19:09:34.637Z,73.58
2023-05-02T19:13:39.192Z,73.53
2023-05-02T19:17:43.447Z,73.46
2023-05-02T19:21:48.094Z,73.45
2023-05-02T19:25:51.271Z,73.55
2023-05-02T19:29:58.087Z,73.54
2023-05-02T19:34:01.077Z,73.94
2023-05-02T19:38:04.259Z,73.96
2023-05-02T19:42:07.466Z,73.90
2023-05-02T19:46:11.973Z,74.15
2023-05-02T19:50:15.503Z,74.54
2023-05-02T19:54:18.572Z,74.58
2023-05-02T19:58:21.663Z,74.57
2023-05-02T20:02:26.334Z,74.83
2023-05-02T20:06:31.498Z,74.82
2023-05-02T20:10:35.030Z,74.59
2023-05-02T20:14:38.228Z,75.11
2023-05-02T20:18:42.603Z,75.04
2023-05-02T20:22:45.686Z,75.20
2023-05-02T20:26:48.856Z,75.19
2023-05-02T20:30:51.889Z,75.34
2023-05-02T20:34:56.395Z,75.71
2023-05-02T20:38:59.548Z,75.67
2023-05-02T20:43:02.572Z,75.78
2023-05-02T20:47:05.648Z,75.97
2023-05-02T20:51:10.099Z,76.10
2023-05-02T20:55:13.144Z,76.28
2023-05-02T20:59:16.223Z,76.13
2023-05-02T21:03:19.616Z,76.26
2023-05-02T21:07:24.090Z,76.30
2023-05-02T21:11:27.103Z,76.74
2023-05-02T21:15:30.122Z,76.87
2023-05-02T21:19:34.122Z,77.35
2023-05-02T21:23:38.772Z,77.56
2023-05-02T21:27:41.808Z,77.74
2023-05-02T21:31:44.885Z,77.74
2023-05-02T21:35:47.922Z,78.08
2023-05-02T21:39:52.287Z,78.06
2023-05-02T21:43:55.296Z,78.34
2023-05-02T21:47:58.719Z,78.65
2023-05-02T21:52:01.939Z,78.61
2023-05-02T21:56:07.578Z,78.85
2023-05-02T22:00:13.168Z,79.40
2023-05-02T22:04:18.288Z,79.48
2023-05-02T22:08:22.068Z,79.74
2023-05-02T22:12:27.459Z,79.96
2023-05-02T22:16:30.913Z,80.11
2023-05-02T22:20:34.038Z,79.78
2023-05-02T22:24:37.268Z,80.06
2023-05-02T22:28:41.838Z,80.32
2023-05-02T22:32:44.897Z,80.33
2023-05-02T22:36:47.955Z,80.12
2023-05-02T22:40:50.947Z,80.10
2023-05-02T22:44:55.356Z,80.22
2023-05-02T22:48:58.832Z,80.66
2023-05-02T22:53:03.887Z,80.27
2023-05-02T22:57:07.384Z,80.24
2023-05-02T23:01:11.774Z,79.96
2023-05-02T23:05:36.603Z,80.14
2023-05-02T23:09:39.620Z,80.40
2023-05-02T23:13:42.712Z,80.24
2023-05-02T23:17:47.103Z,80.18
2023-05-02T23:21:50.173Z,80.59
2023-05-02T23:25:53.369Z,80.36
2023-05-02T23:29:56.348Z,80.73
2023-05-02T23:34:01.529Z,80.27
2023-05-02T23:38:08.072Z,81.01
2023-05-02T23:42:11.365Z,80.78
2023-05-02T23:46:14.413Z,80.79
2023-05-02T23:50:19.466Z,80.72
2023-05-02T23:54:22.454Z,81.13
2023-05-02T23:58:25.562Z,80.94
